createdAt,value
2022-12-28T00:01:25.572Z,13.40
2022-12-28T00:03:53.386Z,12.68
2022-12-28T00:06:22.316Z,10.07
2022-12-28T00:08:49.134Z,8.32
2022-12-28T00:11:30.272Z,8.93
2022-12-28T00:13:59.782Z,14.57
2022-12-28T00:16:30.395Z,8.27
2022-12-28T00:18:58.791Z,9.07
2022-12-28T00:21:26.283Z,10.45
2022-12-28T00:23:57.343Z,13.98
2022-12-28T00:26:25.914Z,12.02
2022-12-28T00:28:56.847Z,10.15
2022-12-28T00:31:27.124Z,14.50
2022-12-28T00:33:55.943Z,9.30
2022-12-28T00:36:22.661Z,9.90
2022-12-28T00:38:49.376Z,8.43
2022-12-28T00:41:16.183Z,6.80
2022-12-28T00:43:43.102Z,9.95
2022-12-28T00:46:10.327Z,9.13
2022-12-28T00:48:37.145Z,5.32
2022-12-28T00:51:06.656Z,6.07
2022-12-28T00:53:33.372Z,7.90
2022-12-28T00:56:08.554Z,11.63
2022-12-28T00:58:35.793Z,9.05
2022-12-28T01:01:03.430Z,10.82
2022-12-28T01:03:30.817Z,13.02
2022-12-28T01:05:58.280Z,8.80
2022-12-28T01:08:25.117Z,12.43
2022-12-28T01:10:51.868Z,8.65
2022-12-28T01:13:18.602Z,10.43
2022-12-28T01:15:45.263Z,7.07
2022-12-28T01:18:12.715Z,9.85
2022-12-28T01:20:40.455Z,9.82
2022-12-28T01:23:07.527Z,8.25
2022-12-28T01:25:34.575Z,9.15
2022-12-28T01:28:01.335Z,7.25
2022-12-28T01:30:30.265Z,5.53
2022-12-28T01:33:01.034Z,7.82
2022-12-28T01:35:28.353Z,8.23
2022-12-28T01:37:57.090Z,4.82
2022-12-28T01:40:23.851Z,8.05
2022-12-28T01:42:50.601Z,8.23
2022-12-28T01:45:21.161Z,5.75
2022-12-28T01:47:51.856Z,8.57
2022-12-28T01:50:24.659Z,10.43
2022-12-28T01:53:01.620Z,8.40
2022-12-28T01:55:32.785Z,11.55
2022-12-28T01:58:15.332Z,9.43
2022-12-28T02:00:42.181Z,8.65
2022-12-28T02:03:18.188Z,11.60
2022-12-28T02:05:49.944Z,9.05
2022-12-28T02:08:26.549Z,6.88
2022-12-28T02:10:54.417Z,8.65
2022-12-28T02:13:23.759Z,8.40
2022-12-28T02:15:51.176Z,5.03
2022-12-28T02:18:19.921Z,17.17
2022-12-28T02:21:24.960Z,8.77
2022-12-28T02:24:25.321Z,6.65
2022-12-28T02:26:57.798Z,7.07
2022-12-28T02:29:37.502Z,6.53
2022-12-28T02:32:23.013Z,8.85
2022-12-28T02:35:05.205Z,5.95
2022-12-28T02:37:42.208Z,10.75
2022-12-28T02:40:17.272Z,14.10
2022-12-28T02:42:45.196Z,9.55
2022-12-28T02:46:09.325Z,10.38
2022-12-28T02:49:02.153Z,6.25
2022-12-28T02:51:31.672Z,9.55
2022-12-28T02:54:10.062Z,8.77
2022-12-28T02:56:59.542Z,6.40
2022-12-28T02:59:33.010Z,9.18
2022-12-28T03:02:05.955Z,9.75
2022-12-28T03:05:00.041Z,7.85
2022-12-28T03:07:54.302Z,5.22
2022-12-28T03:10:36.648Z,5.85
2022-12-28T03:13:33.396Z,6.45
2022-12-28T03:16:06.513Z,9.75
2022-12-28T03:18:54.578Z,6.50
2022-12-28T03:21:41.157Z,8.35
2022-12-28T03:24:29.758Z,11.00
2022-12-28T03:27:17.105Z,6.63
2022-12-28T03:30:20.906Z,9.77
2022-12-28T03:32:48.522Z,7.75
2022-12-28T03:35:17.177Z,10.73
2022-12-28T03:38:00.117Z,9.40
2022-12-28T03:40:34.049Z,11.95
2022-12-28T03:43:28.993Z,7.70
2022-12-28T03:46:01.295Z,9.48
2022-12-28T03:50:56.127Z,6.90
2022-12-28T03:53:43.726Z,11.60
2022-12-28T03:56:17.286Z,13.50
2022-12-28T03:58:46.273Z,10.85
2022-12-28T04:01:15.773Z,7.80
2022-12-28T04:03:43.434Z,11.63
2022-12-28T04:06:16.651Z,8.45
2022-12-28T04:08:45.166Z,9.48
2022-12-28T04:11:12.980Z,12.40
2022-12-28T04:13:41.161Z,9.80
2022-12-28T04:16:13.404Z,10.93
2022-12-28T04:18:44.698Z,14.70
2022-12-28T04:21:13.018Z,11.73
2022-12-28T04:23:42.515Z,10.50
2022-12-28T04:26:21.027Z,9.00
2022-12-28T04:28:50.444Z,11.75
2022-12-28T04:31:26.224Z,8.90
2022-12-28T04:34:22.420Z,13.27
2022-12-28T04:37:09.038Z,13.63
2022-12-28T04:39:54.782Z,11.52
2022-12-28T04:42:22.719Z,12.35
2022-12-28T04:44:49.386Z,12.65
2022-12-28T04:47:16.048Z,10.73
2022-12-28T04:49:42.748Z,8.77
2022-12-28T04:52:09.459Z,8.68
2022-12-28T04:54:36.162Z,11.85
2022-12-28T04:57:02.887Z,13.85
2022-12-28T04:59:29.593Z,9.18
2022-12-28T05:01:56.451Z,18.10
2022-12-28T05:04:23.256Z,12.70
2022-12-28T05:06:50.024Z,12.80
2022-12-28T05:09:18.580Z,13.43
2022-12-28T05:11:45.314Z,14.32
2022-12-28T05:14:12.014Z,11.13
2022-12-28T05:16:38.726Z,11.48
2022-12-28T05:19:05.508Z,11.85
2022-12-28T05:21:32.264Z,9.45
2022-12-28T05:23:59.059Z,12.50
2022-12-28T05:26:28.984Z,12.60
2022-12-28T05:28:57.000Z,10.82
2022-12-28T05:31:24.467Z,13.13
2022-12-28T05:33:51.265Z,9.07
2022-12-28T05:36:21.155Z,8.30
2022-12-28T05:38:48.209Z,12.80
2022-12-28T05:41:16.848Z,9.23
2022-12-28T05:43:44.584Z,7.82
2022-12-28T05:46:14.956Z,9.73
2022-12-28T05:48:42.846Z,8.30
2022-12-28T05:51:12.352Z,8.75
2022-12-28T05:53:39.471Z,8.27
2022-12-28T05:56:15.260Z,12.10
2022-12-28T05:58:43.860Z,10.77
2022-12-28T06:01:14.381Z,8.68
2022-12-28T06:03:41.349Z,8.30
2022-12-28T06:06:10.799Z,7.78
2022-12-28T06:08:38.908Z,7.80
2022-12-28T06:11:08.414Z,10.90
2022-12-28T06:13:35.732Z,10.32
2022-12-28T06:16:08.079Z,10.88
2022-12-28T06:18:35.448Z,12.32
2022-12-28T06:21:07.366Z,8.23
2022-12-28T06:23:34.188Z,9.27
2022-12-28T06:26:03.475Z,8.63
2022-12-28T06:28:30.595Z,12.02
2022-12-28T06:31:05.824Z,9.60
2022-12-28T06:33:33.629Z,7.97
2022-12-28T06:36:00.898Z,9.60
2022-12-28T06:38:29.610Z,6.15
2022-12-28T06:41:16.569Z,6.90
2022-12-28T06:43:44.542Z,8.25
2022-12-28T06:46:12.741Z,7.28
2022-12-28T06:48:40.505Z,5.35
2022-12-28T06:51:15.720Z,5.47
2022-12-28T06:53:43.368Z,7.57
2022-12-28T06:56:13.751Z,6.90
2022-12-28T06:58:41.391Z,5.35
2022-12-28T07:01:10.865Z,9.73
2022-12-28T07:03:37.706Z,9.40
2022-12-28T07:06:05.810Z,9.30
2022-12-28T07:08:33.010Z,10.55
2022-12-28T07:11:07.620Z,7.85
2022-12-28T07:13:34.813Z,7.47
2022-12-28T07:16:03.087Z,6.47
2022-12-28T07:18:29.904Z,5.38
2022-12-28T07:21:05.533Z,5.72
2022-12-28T07:23:32.954Z,8.30
2022-12-28T07:26:07.849Z,5.60
2022-12-28T07:28:43.616Z,9.93
2022-12-28T07:31:19.678Z,7.75
2022-12-28T07:33:48.508Z,4.22
2022-12-28T07:36:17.265Z,6.95
2022-12-28T07:38:44.117Z,6.38
2022-12-28T07:41:17.461Z,4.72
2022-12-28T07:43:44.203Z,9.70
2022-12-28T07:46:20.011Z,4.68
2022-12-28T07:48:47.391Z,5.00
2022-12-28T07:51:19.553Z,5.22
2022-12-28T07:53:48.349Z,6.38
2022-12-28T07:56:16.233Z,5.68
2022-12-28T08:01:14.759Z,4.40
2022-12-28T08:03:42.027Z,3.92
2022-12-28T08:06:13.677Z,6.90
2022-12-28T08:08:43.185Z,7.00
2022-12-28T08:11:12.401Z,7.60
2022-12-28T08:13:41.118Z,4.80
2022-12-28T08:16:09.756Z,4.20
2022-12-28T08:18:36.713Z,5.25
2022-12-28T08:21:13.224Z,6.28
2022-12-28T08:23:40.557Z,4.30
2022-12-28T08:26:14.040Z,6.32
2022-12-28T08:28:42.016Z,10.10
2022-12-28T08:31:12.339Z,6.25
2022-12-28T08:33:39.156Z,7.47
2022-12-28T08:36:07.055Z,5.38
2022-12-28T08:38:34.028Z,4.95
2022-12-28T08:41:02.847Z,6.35
2022-12-28T08:43:31.582Z,5.50
2022-12-28T08:45:59.865Z,6.78
2022-12-28T08:48:26.909Z,7.32
2022-12-28T08:50:54.452Z,7.22
2022-12-28T08:53:24.231Z,13.43
2022-12-28T08:55:51.837Z,7.00
2022-12-28T08:58:18.949Z,7.18
2022-12-28T09:00:45.720Z,8.75
2022-12-28T09:03:12.861Z,8.55
2022-12-28T09:05:40.136Z,12.48
2022-12-28T09:08:08.873Z,9.05
2022-12-28T09:10:45.956Z,6.45
2022-12-28T09:13:12.672Z,5.32
2022-12-28T09:15:39.454Z,9.32
2022-12-28T09:18:07.385Z,7.47
2022-12-28T09:20:35.431Z,7.68
2022-12-28T09:23:02.193Z,6.43
2022-12-28T09:25:28.916Z,10.10
2022-12-28T09:27:59.282Z,8.18
2022-12-28T09:30:26.451Z,8.40
2022-12-28T09:33:14.827Z,7.25
2022-12-28T09:35:41.721Z,9.98
2022-12-28T09:38:08.404Z,8.68
2022-12-28T09:40:36.820Z,7.95
2022-12-28T09:43:09.442Z,11.07
2022-12-28T09:48:15.337Z,11.98
2022-12-28T09:50:43.867Z,12.90
2022-12-28T09:53:33.216Z,18.00
2022-12-28T09:56:43.524Z,18.27
2022-12-28T09:59:23.264Z,11.60
2022-12-28T10:02:02.834Z,11.70
2022-12-28T10:04:29.910Z,11.43
2022-12-28T10:07:01.775Z,11.20
2022-12-28T10:09:33.229Z,10.73
2022-12-28T10:12:02.600Z,9.57
2022-12-28T10:14:34.449Z,10.82
2022-12-28T10:17:01.899Z,8.93
2022-12-28T10:19:29.638Z,11.43
2022-12-28T10:22:02.506Z,11.05
2022-12-28T10:24:32.079Z,12.00
2022-12-28T10:27:01.141Z,13.75
2022-12-28T10:29:31.268Z,10.63
2022-12-28T10:32:14.671Z,9.20
2022-12-28T10:35:00.758Z,12.82
2022-12-28T10:37:31.051Z,10.93
2022-12-28T10:40:00.842Z,10.15
2022-12-28T10:42:51.968Z,10.70
2022-12-28T10:45:22.583Z,9.00
2022-12-28T10:47:52.581Z,8.30
2022-12-28T10:50:52.066Z,9.57
2022-12-28T10:53:32.046Z,10.05
2022-12-28T10:56:13.970Z,11.52
2022-12-28T10:58:44.459Z,7.00
2022-12-28T11:01:14.037Z,8.18
2022-12-28T11:03:45.210Z,8.45
2022-12-28T11:06:24.375Z,10.30
2022-12-28T11:09:07.057Z,6.20
2022-12-28T11:11:34.172Z,5.10
2022-12-28T11:14:23.824Z,11.65
2022-12-28T11:16:50.817Z,6.65
2022-12-28T11:19:17.557Z,3.80
2022-12-28T11:21:45.025Z,8.30
2022-12-28T11:24:16.183Z,4.25
2022-12-28T11:26:45.460Z,4.60
2022-12-28T11:29:14.528Z,3.17
2022-12-28T11:32:05.203Z,3.15
2022-12-28T11:34:32.488Z,4.50
2022-12-28T11:36:59.912Z,3.83
2022-12-28T11:39:26.626Z,3.28
2022-12-28T11:44:41.312Z,7.85
2022-12-28T11:47:16.880Z,4.22
2022-12-28T11:49:45.746Z,4.30
2022-12-28T11:52:20.770Z,3.70
2022-12-28T11:54:56.442Z,3.60
2022-12-28T11:57:43.925Z,5.18
2022-12-28T12:00:23.061Z,3.65
2022-12-28T12:03:01.176Z,2.83
2022-12-28T12:05:37.159Z,2.78
2022-12-28T12:08:14.069Z,4.50
2022-12-28T12:10:42.406Z,3.25
2022-12-28T12:13:27.489Z,5.18
2022-12-28T12:16:08.368Z,4.75
2022-12-28T12:18:48.489Z,6.15
2022-12-28T12:21:41.810Z,4.68
2022-12-28T12:24:27.941Z,5.22
2022-12-28T12:26:59.570Z,3.80
2022-12-28T12:29:39.858Z,8.65
2022-12-28T12:32:20.028Z,4.10
2022-12-28T12:34:53.201Z,6.82
2022-12-28T12:37:49.373Z,6.85
2022-12-28T12:40:37.615Z,6.15
2022-12-28T12:43:22.147Z,6.50
2022-12-28T12:46:13.817Z,7.05
2022-12-28T12:48:57.771Z,5.30
2022-12-28T12:51:45.442Z,6.35
2022-12-28T12:54:35.510Z,4.05
2022-12-28T12:57:13.354Z,3.47
2022-12-28T13:00:12.767Z,7.07
2022-12-28T13:02:42.418Z,6.38
2022-12-28T13:05:19.977Z,6.28
2022-12-28T13:07:46.955Z,6.22
2022-12-28T13:10:26.130Z,7.97
2022-12-28T13:12:57.298Z,7.43
2022-12-28T13:15:24.202Z,6.90
2022-12-28T13:18:43.032Z,13.60
2022-12-28T13:21:05.991Z,12.15
2022-12-28T13:23:45.023Z,9.02
2022-12-28T13:26:14.354Z,8.98
2022-12-28T13:28:53.089Z,5.68
2022-12-28T13:31:28.640Z,8.98
2022-12-28T13:34:19.895Z,8.23
2022-12-28T13:36:56.551Z,8.57
2022-12-28T13:39:28.195Z,10.13
2022-12-28T13:42:04.341Z,8.52
2022-12-28T13:44:49.107Z,10.63
2022-12-28T13:47:28.585Z,14.77
2022-12-28T13:49:58.128Z,9.80
2022-12-28T13:52:33.829Z,5.85
2022-12-28T13:55:06.986Z,8.40
2022-12-28T13:57:46.825Z,11.80
2022-12-28T14:00:20.059Z,16.42
2022-12-28T14:02:49.223Z,11.73
2022-12-28T14:05:18.593Z,10.98
2022-12-28T14:07:47.014Z,11.10
2022-12-28T14:10:13.813Z,11.52
2022-12-28T14:12:41.172Z,9.25
2022-12-28T14:15:09.093Z,13.45
2022-12-28T14:17:38.307Z,8.63
2022-12-28T14:20:07.088Z,9.00
2022-12-28T14:22:40.196Z,10.88
2022-12-28T14:25:15.955Z,12.90
2022-12-28T14:28:06.056Z,10.02
2022-12-28T14:30:41.894Z,10.70
2022-12-28T14:33:24.427Z,8.50
2022-12-28T14:35:55.141Z,6.70
2022-12-28T14:38:25.708Z,9.48
2022-12-28T14:40:55.134Z,11.25
2022-12-28T14:43:28.893Z,10.57
2022-12-28T14:48:44.883Z,9.02
2022-12-28T14:51:14.588Z,10.50
2022-12-28T14:53:45.462Z,12.82
2022-12-28T14:56:18.650Z,12.55
2022-12-28T14:58:59.187Z,9.35
2022-12-28T15:01:44.355Z,9.73
2022-12-28T15:04:49.882Z,9.65
2022-12-28T15:07:16.549Z,7.65
2022-12-28T15:09:46.062Z,7.47
2022-12-28T15:12:18.014Z,6.03
2022-12-28T15:14:45.016Z,12.70
2022-12-28T15:17:12.315Z,10.05
2022-12-28T15:19:39.103Z,6.90
2022-12-28T15:22:05.911Z,8.80
2022-12-28T15:24:34.575Z,4.03
2022-12-28T15:27:07.410Z,6.57
2022-12-28T15:32:21.118Z,5.78
2022-12-28T15:34:47.982Z,6.88
2022-12-28T15:37:14.718Z,7.70
2022-12-28T15:39:41.490Z,4.00
2022-12-28T15:42:08.724Z,6.68
2022-12-28T15:44:38.087Z,7.65
2022-12-28T15:47:05.424Z,10.02
2022-12-28T15:49:38.399Z,12.00
2022-12-28T15:52:05.403Z,5.78
2022-12-28T15:54:32.318Z,10.63
2022-12-28T15:56:59.193Z,11.43
2022-12-28T15:59:26.625Z,10.38
2022-12-28T16:01:53.424Z,14.68
2022-12-28T16:04:20.439Z,16.98
2022-12-28T16:06:47.137Z,10.40
2022-12-28T16:09:14.580Z,11.63
2022-12-28T16:11:42.108Z,6.97
2022-12-28T16:14:14.896Z,5.28
2022-12-28T16:16:43.382Z,12.07
2022-12-28T16:19:13.272Z,10.02
2022-12-28T16:21:40.248Z,10.05
2022-12-28T16:24:07.319Z,7.82
2022-12-28T16:26:34.112Z,9.25
2022-12-28T16:29:04.001Z,12.07
2022-12-28T16:31:44.251Z,8.07
2022-12-28T16:34:17.956Z,9.23
2022-12-28T16:36:47.870Z,12.02
2022-12-28T16:39:17.404Z,7.53
2022-12-28T16:41:44.174Z,5.97
2022-12-28T16:44:19.481Z,5.00
2022-12-28T16:46:46.887Z,13.25
2022-12-28T16:49:14.082Z,6.22
2022-12-28T16:51:43.744Z,11.60
2022-12-28T16:54:17.498Z,14.75
2022-12-28T16:56:45.842Z,15.32
2022-12-28T16:59:19.101Z,12.90
2022-12-28T17:01:46.146Z,12.95
2022-12-28T17:04:13.682Z,15.13
2022-12-28T17:06:53.255Z,9.85
2022-12-28T17:09:23.787Z,14.48
2022-12-28T17:12:12.691Z,6.28
2022-12-28T17:14:39.684Z,5.95
2022-12-28T17:17:07.241Z,9.88
2022-12-28T17:19:35.217Z,10.15
2022-12-28T17:22:02.427Z,8.65
2022-12-28T17:24:29.273Z,7.00
2022-12-28T17:27:05.174Z,5.80
2022-12-28T17:29:34.022Z,6.13
2022-12-28T17:32:00.810Z,5.65
2022-12-28T17:34:28.964Z,7.55
2022-12-28T17:36:55.826Z,11.55
2022-12-28T17:39:22.618Z,8.45
2022-12-28T17:41:49.691Z,10.45
2022-12-28T17:44:27.071Z,7.70
2022-12-28T17:46:53.907Z,6.85
2022-12-28T17:49:21.032Z,7.03
2022-12-28T17:51:48.003Z,9.30
2022-12-28T17:54:16.339Z,7.68
2022-12-28T17:56:43.961Z,8.25
2022-12-28T17:59:15.918Z,4.28
2022-12-28T18:02:10.379Z,11.52
2022-12-28T18:04:37.560Z,6.40
2022-12-28T18:07:06.210Z,6.63
2022-12-28T18:09:35.414Z,4.85
2022-12-28T18:12:02.186Z,7.00
2022-12-28T18:14:29.187Z,5.72
2022-12-28T18:17:00.488Z,7.57
2022-12-28T18:19:27.574Z,5.35
2022-12-28T18:21:54.508Z,6.80
2022-12-28T18:27:04.052Z,7.35
2022-12-28T18:29:30.809Z,6.40
2022-12-28T18:34:38.529Z,7.60
2022-12-28T18:37:05.687Z,5.05
2022-12-28T18:39:33.411Z,6.72
2022-12-28T18:42:10.917Z,4.50
2022-12-28T18:44:38.460Z,6.57
2022-12-28T18:47:05.268Z,7.50
2022-12-28T18:49:47.248Z,6.85
2022-12-28T18:52:16.323Z,6.80
2022-12-28T18:54:43.150Z,6.80
2022-12-28T18:57:11.028Z,5.43
2022-12-28T18:59:39.936Z,6.72
2022-12-28T19:02:11.971Z,5.13
2022-12-28T19:04:43.474Z,6.90
2022-12-28T19:07:10.531Z,7.10
2022-12-28T19:09:37.699Z,8.85
2022-12-28T19:12:07.087Z,5.47
2022-12-28T19:14:34.039Z,7.65
2022-12-28T19:17:00.832Z,7.00
2022-12-28T19:19:27.605Z,2.97
2022-12-28T19:22:19.341Z,3.28
2022-12-28T19:24:48.565Z,6.72
2022-12-28T19:27:15.420Z,4.38
2022-12-28T19:29:42.420Z,7.00
2022-12-28T19:32:12.437Z,19.27
2022-12-28T19:34:51.337Z,8.35
2022-12-28T19:37:18.060Z,8.68
2022-12-28T19:39:44.955Z,7.72
2022-12-28T19:42:11.825Z,5.55
2022-12-28T19:44:38.756Z,4.13
2022-12-28T19:47:05.818Z,3.78
2022-12-28T19:52:20.726Z,7.75
2022-12-28T19:54:56.964Z,5.47
2022-12-28T19:57:49.587Z,5.88
2022-12-28T20:00:16.803Z,5.90
2022-12-28T20:02:43.782Z,6.68
2022-12-28T20:05:10.745Z,6.43
2022-12-28T20:07:38.528Z,4.65
2022-12-28T20:10:28.827Z,8.48
2022-12-28T20:12:55.753Z,5.20
2022-12-28T20:15:22.862Z,7.15
2022-12-28T20:17:49.617Z,6.53
2022-12-28T20:20:17.328Z,5.85
2022-12-28T20:22:45.544Z,4.60
2022-12-28T20:25:12.456Z,7.70
2022-12-28T20:27:39.158Z,6.63
2022-12-28T20:30:06.460Z,5.47
2022-12-28T20:32:33.212Z,7.22
2022-12-28T20:34:59.914Z,5.47
2022-12-28T20:37:26.586Z,6.82
2022-12-28T20:39:54.139Z,7.18
2022-12-28T20:42:39.675Z,4.82
2022-12-28T20:45:06.940Z,5.82
2022-12-28T20:47:33.587Z,5.85
2022-12-28T20:50:00.412Z,6.07
2022-12-28T20:52:27.290Z,5.80
2022-12-28T20:54:54.222Z,4.40
2022-12-28T20:57:21.146Z,4.07
2022-12-28T20:59:47.993Z,4.47
2022-12-28T21:02:14.720Z,4.53
2022-12-28T21:04:41.459Z,5.63
2022-12-28T21:07:08.205Z,3.28
2022-12-28T21:09:34.991Z,5.75
2022-12-28T21:12:02.056Z,3.30
2022-12-28T21:14:28.830Z,4.30
2022-12-28T21:16:55.699Z,4.65
2022-12-28T21:19:22.661Z,4.22
2022-12-28T21:21:49.490Z,3.05
2022-12-28T21:24:16.486Z,3.65
2022-12-28T21:26:43.401Z,3.83
2022-12-28T21:29:10.264Z,3.65
2022-12-28T21:31:37.047Z,3.45
2022-12-28T21:34:03.841Z,3.53
2022-12-28T21:36:30.632Z,4.03
2022-12-28T21:38:57.575Z,4.65
2022-12-28T21:41:42.824Z,2.53
2022-12-28T21:44:11.837Z,3.05
2022-12-28T21:46:39.218Z,3.30
2022-12-28T21:49:06.410Z,4.05
2022-12-28T21:51:37.473Z,4.68
2022-12-28T21:54:14.159Z,4.47
2022-12-28T21:56:42.010Z,5.05
2022-12-28T21:59:09.837Z,4.97
2022-12-28T22:01:56.474Z,9.90
2022-12-28T22:04:42.161Z,5.03
2022-12-28T22:07:11.211Z,5.15
2022-12-28T22:09:56.935Z,8.02
2022-12-28T22:12:37.390Z,5.28
2022-12-28T22:15:40.481Z,8.05
2022-12-28T22:18:36.642Z,3.55
2022-12-28T22:21:03.588Z,3.67
2022-12-28T22:23:34.572Z,7.22
2022-12-28T22:26:02.067Z,3.83
2022-12-28T22:28:28.939Z,4.90
2022-12-28T22:30:55.667Z,3.72
2022-12-28T22:33:22.384Z,4.30
2022-12-28T22:35:49.157Z,4.05
2022-12-28T22:38:16.022Z,5.70
2022-12-28T22:40:42.755Z,4.32
2022-12-28T22:43:09.433Z,4.70
2022-12-28T22:45:36.285Z,5.50
2022-12-28T22:48:03.229Z,4.10
2022-12-28T22:50:30.338Z,4.03
2022-12-28T22:52:58.093Z,5.65
2022-12-28T22:55:24.968Z,3.30
2022-12-28T22:57:51.615Z,3.67
2022-12-28T23:00:18.447Z,3.38
2022-12-28T23:02:45.458Z,5.38
2022-12-28T23:05:12.369Z,5.72
2022-12-28T23:07:39.402Z,3.58
2022-12-28T23:10:08.113Z,3.13
2022-12-28T23:12:35.003Z,5.72
2022-12-28T23:15:18.934Z,5.57
2022-12-28T23:17:47.867Z,3.38
2022-12-28T23:20:33.521Z,3.92
2022-12-28T23:23:19.086Z,3.35
2022-12-28T23:26:14.985Z,2.97
2022-12-28T23:28:41.680Z,3.40
2022-12-28T23:31:08.352Z,4.80
2022-12-28T23:33:36.594Z,3.65
2022-12-28T23:36:04.198Z,4.68
2022-12-28T23:38:32.649Z,4.43
2022-12-28T23:41:17.712Z,3.78
2022-12-28T23:43:44.603Z,2.63
2022-12-28T23:46:11.592Z,2.30
2022-12-28T23:48:38.328Z,2.55
2022-12-28T23:51:08.119Z,2.60
2022-12-28T23:53:35.452Z,2.50
2022-12-28T23:56:02.342Z,2.10
2022-12-28T23:58:29.030Z,4.97
